sensor_id;sensor_type;location;lat;lon;timestamp;temperature;humidity
53208;DHT22;39093;52.788;6.940;2022-09-17T00:01:05;10.80;99.90
53208;DHT22;39093;52.788;6.940;2022-09-17T00:03:34;10.80;99.90
53208;DHT22;39093;52.788;6.940;2022-09-17T00:06:04;10.80;99.90
53208;DHT22;39093;52.788;6.940;2022-09-17T00:08:33;10.70;99.90
53208;DHT22;39093;52.788;6.940;2022-09-17T00:11:15;10.70;99.90
53208;DHT22;39093;52.788;6.940;2022-09-17T00:13:43;10.70;99.90
53208;DHT22;39093;52.788;6.940;2022-09-17T00:16:11;10.70;99.90
53208;DHT22;39093;52.788;6.940;2022-09-17T00:18:38;10.60;99.90
53208;DHT22;39093;52.788;6.940;2022-09-17T00:21:18;10.60;99.90
53208;DHT22;39093;52.788;6.940;2022-09-17T00:23:45;10.60;99.90
53208;DHT22;39093;52.788;6.940;2022-09-17T00:26:13;10.50;99.90
53208;DHT22;39093;52.788;6.940;2022-09-17T00:28:40;10.50;99.90
53208;DHT22;39093;52.788;6.940;2022-09-17T00:31:10;10.50;99.90
53208;DHT22;39093;52.788;6.940;2022-09-17T00:33:37;10.50;99.90
53208;DHT22;39093;52.788;6.940;2022-09-17T00:36:04;10.40;99.90
53208;DHT22;39093;52.788;6.940;2022-09-17T00:38:32;10.30;99.90
53208;DHT22;39093;52.788;6.940;2022-09-17T00:41:00;10.40;99.90
53208;DHT22;39093;52.788;6.940;2022-09-17T00:43:48;10.30;99.90
53208;DHT22;39093;52.788;6.940;2022-09-17T00:46:34;10.20;99.90
53208;DHT22;39093;52.788;6.940;2022-09-17T00:49:12;10.20;99.90
53208;DHT22;39093;52.788;6.940;2022-09-17T00:54:47;10.10;99.90
53208;DHT22;39093;52.788;6.940;2022-09-17T00:57:15;10.10;99.90
53208;DHT22;39093;52.788;6.940;2022-09-17T00:59:43;10.10;99.90
53208;DHT22;39093;52.788;6.940;2022-09-17T01:02:10;10.00;99.90
53208;DHT22;39093;52.788;6.940;2022-09-17T01:04:37;10.00;99.90
53208;DHT22;39093;52.788;6.940;2022-09-17T01:07:17;10.10;99.90
53208;DHT22;39093;52.788;6.940;2022-09-17T01:15:59;9.90;99.90
53208;DHT22;39093;52.788;6.940;2022-09-17T01:18:20;9.90;99.90
53208;DHT22;39093;52.788;6.940;2022-09-17T01:32:17;9.80;99.90
53208;DHT22;39093;52.788;6.940;2022-09-17T01:35:04;9.80;99.90
53208;DHT22;39093;52.788;6.940;2022-09-17T01:37:56;9.80;99.90
53208;DHT22;39093;52.788;6.940;2022-09-17T01:43:05;9.80;99.90
53208;DHT22;39093;52.788;6.940;2022-09-17T01:48:26;9.70;99.90
53208;DHT22;39093;52.788;6.940;2022-09-17T01:51:04;9.80;99.90
53208;DHT22;39093;52.788;6.940;2022-09-17T01:53:54;9.80;99.90
53208;DHT22;39093;52.788;6.940;2022-09-17T01:56:27;9.70;99.90
53208;DHT22;39093;52.788;6.940;2022-09-17T01:59:10;9.80;99.90
53208;DHT22;39093;52.788;6.940;2022-09-17T02:01:41;9.80;99.90
53208;DHT22;39093;52.788;6.940;2022-09-17T02:04:37;9.80;99.90
53208;DHT22;39093;52.788;6.940;2022-09-17T02:07:12;9.70;99.90
53208;DHT22;39093;52.788;6.940;2022-09-17T02:09:46;9.80;99.90
53208;DHT22;39093;52.788;6.940;2022-09-17T02:12:20;9.70;99.90
53208;DHT22;39093;52.788;6.940;2022-09-17T02:14:52;9.80;99.90
53208;DHT22;39093;52.788;6.940;2022-09-17T02:17:36;9.80;99.90
53208;DHT22;39093;52.788;6.940;2022-09-17T02:20:05;9.70;99.90
53208;DHT22;39093;52.788;6.940;2022-09-17T02:22:42;9.70;99.90
53208;DHT22;39093;52.788;6.940;2022-09-17T02:25:36;9.70;99.90
53208;DHT22;39093;52.788;6.940;2022-09-17T02:28:16;9.70;99.90
53208;DHT22;39093;52.788;6.940;2022-09-17T02:30:45;9.70;99.90
53208;DHT22;39093;52.788;6.940;2022-09-17T02:33:13;9.60;99.90
53208;DHT22;39093;52.788;6.940;2022-09-17T02:35:42;9.70;99.90
53208;DHT22;39093;52.788;6.940;2022-09-17T02:38:09;9.60;99.90
53208;DHT22;39093;52.788;6.940;2022-09-17T02:41:02;9.70;99.90
53208;DHT22;39093;52.788;6.940;2022-09-17T03:00:43;9.50;99.90
53208;DHT22;39093;52.788;6.940;2022-09-17T03:03:18;9.40;99.90
53208;DHT22;39093;52.788;6.940;2022-09-17T03:05:47;9.40;99.90
53208;DHT22;39093;52.788;6.940;2022-09-17T03:08:16;9.50;99.90
53208;DHT22;39093;52.788;6.940;2022-09-17T03:10:44;9.50;99.90
53208;DHT22;39093;52.788;6.940;2022-09-17T03:13:11;9.50;99.90
53208;DHT22;39093;52.788;6.940;2022-09-17T03:15:38;9.40;99.90
53208;DHT22;39093;52.788;6.940;2022-09-17T03:18:05;9.40;99.90
53208;DHT22;39093;52.788;6.940;2022-09-17T03:20:32;9.50;99.90
53208;DHT22;39093;52.788;6.940;2022-09-17T03:22:59;9.40;99.90
53208;DHT22;39093;52.788;6.940;2022-09-17T03:25:26;9.50;99.90
53208;DHT22;39093;52.788;6.940;2022-09-17T03:27:53;9.50;99.90
53208;DHT22;39093;52.788;6.940;2022-09-17T03:30:20;9.50;99.90
53208;DHT22;39093;52.788;6.940;2022-09-17T03:32:47;9.50;99.90
53208;DHT22;39093;52.788;6.940;2022-09-17T03:35:14;9.50;99.90
53208;DHT22;39093;52.788;6.940;2022-09-17T03:37:41;9.50;99.90
53208;DHT22;39093;52.788;6.940;2022-09-17T03:40:08;9.50;99.90
53208;DHT22;39093;52.788;6.940;2022-09-17T03:42:36;9.50;99.90
53208;DHT22;39093;52.788;6.940;2022-09-17T03:45:03;9.50;99.90
53208;DHT22;39093;52.788;6.940;2022-09-17T03:47:30;9.40;99.90
53208;DHT22;39093;52.788;6.940;2022-09-17T03:49:57;9.50;99.90
53208;DHT22;39093;52.788;6.940;2022-09-17T03:52:24;9.50;99.90
53208;DHT22;39093;52.788;6.940;2022-09-17T03:54:51;9.50;99.90
53208;DHT22;39093;52.788;6.940;2022-09-17T03:57:18;9.50;99.90
53208;DHT22;39093;52.788;6.940;2022-09-17T03:59:45;9.50;99.90
53208;DHT22;39093;52.788;6.940;2022-09-17T04:02:12;9.50;99.90
53208;DHT22;39093;52.788;6.940;2022-09-17T04:04:39;9.40;99.90
53208;DHT22;39093;52.788;6.940;2022-09-17T04:07:06;9.50;99.90
53208;DHT22;39093;52.788;6.940;2022-09-17T04:09:33;9.50;99.90
53208;DHT22;39093;52.788;6.940;2022-09-17T04:12:01;9.40;99.90
53208;DHT22;39093;52.788;6.940;2022-09-17T04:14:28;9.40;99.90
53208;DHT22;39093;52.788;6.940;2022-09-17T04:16:57;9.40;99.90
53208;DHT22;39093;52.788;6.940;2022-09-17T04:19:24;9.40;99.90
53208;DHT22;39093;52.788;6.940;2022-09-17T04:21:50;9.40;99.90
53208;DHT22;39093;52.788;6.940;2022-09-17T04:24:18;9.50;99.90
53208;DHT22;39093;52.788;6.940;2022-09-17T04:26:45;9.70;99.90
53208;DHT22;39093;52.788;6.940;2022-09-17T04:29:12;9.60;99.90
53208;DHT22;39093;52.788;6.940;2022-09-17T04:31:39;9.50;99.90
53208;DHT22;39093;52.788;6.940;2022-09-17T04:34:06;9.50;99.90
53208;DHT22;39093;52.788;6.940;2022-09-17T04:36:33;9.60;99.90
53208;DHT22;39093;52.788;6.940;2022-09-17T04:39:00;9.50;99.90
53208;DHT22;39093;52.788;6.940;2022-09-17T04:41:27;9.50;99.90
53208;DHT22;39093;52.788;6.940;2022-09-17T04:43:53;9.50;99.90
53208;DHT22;39093;52.788;6.940;2022-09-17T04:46:20;9.50;99.90
53208;DHT22;39093;52.788;6.940;2022-09-17T04:48:47;9.50;99.90
53208;DHT22;39093;52.788;6.940;2022-09-17T04:51:14;9.40;99.90
53208;DHT22;39093;52.788;6.940;2022-09-17T04:53:41;9.40;99.90
53208;DHT22;39093;52.788;6.940;2022-09-17T04:56:08;9.40;99.90
53208;DHT22;39093;52.788;6.940;2022-09-17T04:58:35;9.30;99.90
53208;DHT22;39093;52.788;6.940;2022-09-17T05:01:02;9.40;99.90
53208;DHT22;39093;52.788;6.940;2022-09-17T05:03:29;9.30;99.90
53208;DHT22;39093;52.788;6.940;2022-09-17T05:05:56;9.30;99.90
53208;DHT22;39093;52.788;6.940;2022-09-17T05:08:23;9.30;99.90
53208;DHT22;39093;52.788;6.940;2022-09-17T05:10:51;9.30;99.90
53208;DHT22;39093;52.788;6.940;2022-09-17T05:13:18;9.30;99.90
53208;DHT22;39093;52.788;6.940;2022-09-17T05:15:45;9.30;99.90
53208;DHT22;39093;52.788;6.940;2022-09-17T05:18:12;9.40;99.90
53208;DHT22;39093;52.788;6.940;2022-09-17T05:20:39;9.30;99.90
53208;DHT22;39093;52.788;6.940;2022-09-17T05:23:06;9.20;99.90
53208;DHT22;39093;52.788;6.940;2022-09-17T05:25:33;9.20;99.90
53208;DHT22;39093;52.788;6.940;2022-09-17T05:28:00;9.30;99.90
53208;DHT22;39093;52.788;6.940;2022-09-17T05:30:27;9.20;99.90
53208;DHT22;39093;52.788;6.940;2022-09-17T05:33:01;9.20;99.90
53208;DHT22;39093;52.788;6.940;2022-09-17T05:35:31;9.20;99.90
53208;DHT22;39093;52.788;6.940;2022-09-17T05:38:03;9.20;99.90
53208;DHT22;39093;52.788;6.940;2022-09-17T05:40:31;9.20;99.90
53208;DHT22;39093;52.788;6.940;2022-09-17T05:43:03;9.20;99.90
53208;DHT22;39093;52.788;6.940;2022-09-17T05:45:32;9.20;99.90
53208;DHT22;39093;52.788;6.940;2022-09-17T05:48:01;9.20;99.90
53208;DHT22;39093;52.788;6.940;2022-09-17T05:50:29;9.20;99.90
53208;DHT22;39093;52.788;6.940;2022-09-17T05:52:56;9.20;99.90
53208;DHT22;39093;52.788;6.940;2022-09-17T05:55:23;9.40;99.90
53208;DHT22;39093;52.788;6.940;2022-09-17T05:57:50;9.20;99.90
53208;DHT22;39093;52.788;6.940;2022-09-17T06:00:17;9.20;99.90
53208;DHT22;39093;52.788;6.940;2022-09-17T06:02:44;9.20;99.90
53208;DHT22;39093;52.788;6.940;2022-09-17T06:05:11;9.20;99.90
53208;DHT22;39093;52.788;6.940;2022-09-17T06:07:38;9.30;99.90
53208;DHT22;39093;52.788;6.940;2022-09-17T06:10:06;9.40;99.90
53208;DHT22;39093;52.788;6.940;2022-09-17T06:12:34;9.40;99.90
53208;DHT22;39093;52.788;6.940;2022-09-17T06:15:02;9.40;99.90
53208;DHT22;39093;52.788;6.940;2022-09-17T06:17:34;9.50;99.90
53208;DHT22;39093;52.788;6.940;2022-09-17T06:20:02;9.60;99.90
53208;DHT22;39093;52.788;6.940;2022-09-17T06:22:30;9.60;99.90
53208;DHT22;39093;52.788;6.940;2022-09-17T06:24:57;9.70;99.90
53208;DHT22;39093;52.788;6.940;2022-09-17T06:27:33;9.80;99.90
53208;DHT22;39093;52.788;6.940;2022-09-17T06:30:00;9.90;99.90
53208;DHT22;39093;52.788;6.940;2022-09-17T06:32:28;10.00;99.90
53208;DHT22;39093;52.788;6.940;2022-09-17T06:34:55;10.00;99.90
53208;DHT22;39093;52.788;6.940;2022-09-17T06:37:30;10.00;99.90
53208;DHT22;39093;52.788;6.940;2022-09-17T06:39:57;10.00;99.90
53208;DHT22;39093;52.788;6.940;2022-09-17T06:42:25;9.90;99.90
53208;DHT22;39093;52.788;6.940;2022-09-17T06:44:52;9.90;99.90
53208;DHT22;39093;52.788;6.940;2022-09-17T06:47:19;9.80;99.90
53208;DHT22;39093;52.788;6.940;2022-09-17T06:49:46;9.70;99.90
53208;DHT22;39093;52.788;6.940;2022-09-17T06:52:13;9.80;99.90
53208;DHT22;39093;52.788;6.940;2022-09-17T06:54:40;9.80;99.90
53208;DHT22;39093;52.788;6.940;2022-09-17T06:57:07;9.70;99.90
53208;DHT22;39093;52.788;6.940;2022-09-17T06:59:33;9.70;99.90
53208;DHT22;39093;52.788;6.940;2022-09-17T07:02:00;9.80;99.90
53208;DHT22;39093;52.788;6.940;2022-09-17T07:04:27;9.90;99.90
53208;DHT22;39093;52.788;6.940;2022-09-17T07:06:54;9.80;99.90
53208;DHT22;39093;52.788;6.940;2022-09-17T07:09:21;10.00;99.90
53208;DHT22;39093;52.788;6.940;2022-09-17T07:11:48;9.90;99.90
53208;DHT22;39093;52.788;6.940;2022-09-17T07:14:15;9.90;99.90
53208;DHT22;39093;52.788;6.940;2022-09-17T07:16:42;9.80;99.90
53208;DHT22;39093;52.788;6.940;2022-09-17T07:19:10;9.80;99.90
53208;DHT22;39093;52.788;6.940;2022-09-17T07:21:40;9.80;99.90
53208;DHT22;39093;52.788;6.940;2022-09-17T07:24:07;9.90;99.90
53208;DHT22;39093;52.788;6.940;2022-09-17T07:26:34;9.90;99.90
53208;DHT22;39093;52.788;6.940;2022-09-17T07:29:01;9.90;99.90
53208;DHT22;39093;52.788;6.940;2022-09-17T07:31:28;10.00;99.90
53208;DHT22;39093;52.788;6.940;2022-09-17T07:33:55;10.20;99.90
53208;DHT22;39093;52.788;6.940;2022-09-17T07:36:22;10.20;99.90
53208;DHT22;39093;52.788;6.940;2022-09-17T07:38:49;10.30;99.90
53208;DHT22;39093;52.788;6.940;2022-09-17T07:41:16;10.30;99.90
53208;DHT22;39093;52.788;6.940;2022-09-17T07:43:44;10.40;99.90
53208;DHT22;39093;52.788;6.940;2022-09-17T07:46:14;10.50;99.90
53208;DHT22;39093;52.788;6.940;2022-09-17T07:48:42;10.40;99.90
53208;DHT22;39093;52.788;6.940;2022-09-17T07:51:17;10.50;99.90
53208;DHT22;39093;52.788;6.940;2022-09-17T07:53:45;10.50;99.90
53208;DHT22;39093;52.788;6.940;2022-09-17T07:56:13;10.50;99.90
53208;DHT22;39093;52.788;6.940;2022-09-17T07:58:40;10.60;99.90
53208;DHT22;39093;52.788;6.940;2022-09-17T08:01:12;10.70;99.90
53208;DHT22;39093;52.788;6.940;2022-09-17T08:03:48;10.80;99.90
53208;DHT22;39093;52.788;6.940;2022-09-17T08:06:18;10.90;99.90
53208;DHT22;39093;52.788;6.940;2022-09-17T08:08:45;10.90;99.90
53208;DHT22;39093;52.788;6.940;2022-09-17T08:11:15;11.00;99.90
53208;DHT22;39093;52.788;6.940;2022-09-17T08:14:02;10.80;99.90
53208;DHT22;39093;52.788;6.940;2022-09-17T08:16:29;10.80;99.90
53208;DHT22;39093;52.788;6.940;2022-09-17T08:18:57;10.90;99.90
53208;DHT22;39093;52.788;6.940;2022-09-17T08:21:24;11.00;99.90
53208;DHT22;39093;52.788;6.940;2022-09-17T08:23:51;10.90;99.90
53208;DHT22;39093;52.788;6.940;2022-09-17T08:26:20;11.10;99.90
53208;DHT22;39093;52.788;6.940;2022-09-17T08:28:52;11.10;99.90
53208;DHT22;39093;52.788;6.940;2022-09-17T08:31:24;11.20;99.90
53208;DHT22;39093;52.788;6.940;2022-09-17T08:33:52;11.20;99.90
53208;DHT22;39093;52.788;6.940;2022-09-17T08:36:19;11.30;99.90
53208;DHT22;39093;52.788;6.940;2022-09-17T08:38:51;11.50;99.90
53208;DHT22;39093;52.788;6.940;2022-09-17T08:46:50;11.60;99.90
53208;DHT22;39093;52.788;6.940;2022-09-17T08:57:48;11.90;99.90
53208;DHT22;39093;52.788;6.940;2022-09-17T09:00:18;11.80;99.90
53208;DHT22;39093;52.788;6.940;2022-09-17T09:05:47;11.50;99.90
53208;DHT22;39093;52.788;6.940;2022-09-17T09:08:29;11.40;99.90
53208;DHT22;39093;52.788;6.940;2022-09-17T09:10:59;11.40;99.90
53208;DHT22;39093;52.788;6.940;2022-09-17T09:13:35;11.40;99.90
53208;DHT22;39093;52.788;6.940;2022-09-17T09:18:40;11.30;99.90
53208;DHT22;39093;52.788;6.940;2022-09-17T09:23:59;11.50;99.90
53208;DHT22;39093;52.788;6.940;2022-09-17T09:31:54;11.60;99.90
53208;DHT22;39093;52.788;6.940;2022-09-17T09:34:26;11.70;99.90
53208;DHT22;39093;52.788;6.940;2022-09-17T09:37:00;11.90;99.90
53208;DHT22;39093;52.788;6.940;2022-09-17T09:39:33;12.10;99.90
53208;DHT22;39093;52.788;6.940;2022-09-17T09:42:18;12.20;99.90
53208;DHT22;39093;52.788;6.940;2022-09-17T09:44:48;12.30;99.90
53208;DHT22;39093;52.788;6.940;2022-09-17T09:53:30;12.30;99.90
53208;DHT22;39093;52.788;6.940;2022-09-17T09:56:32;12.30;99.90
53208;DHT22;39093;52.788;6.940;2022-09-17T09:59:06;12.40;99.90
53208;DHT22;39093;52.788;6.940;2022-09-17T10:01:37;12.50;99.90
53208;DHT22;39093;52.788;6.940;2022-09-17T10:06:45;12.60;99.90
53208;DHT22;39093;52.788;6.940;2022-09-17T10:09:14;12.50;99.90
53208;DHT22;39093;52.788;6.940;2022-09-17T10:12:13;12.40;99.90
53208;DHT22;39093;52.788;6.940;2022-09-17T10:14:45;12.30;99.90
53208;DHT22;39093;52.788;6.940;2022-09-17T10:17:22;12.20;99.90
53208;DHT22;39093;52.788;6.940;2022-09-17T10:22:31;12.30;99.90
53208;DHT22;39093;52.788;6.940;2022-09-17T10:25:00;12.30;99.90
53208;DHT22;39093;52.788;6.940;2022-09-17T10:27:29;12.20;99.90
53208;DHT22;39093;52.788;6.940;2022-09-17T10:32:34;12.00;99.90
53208;DHT22;39093;52.788;6.940;2022-09-17T10:39:59;11.90;99.90
53208;DHT22;39093;52.788;6.940;2022-09-17T10:42:26;12.00;99.90
53208;DHT22;39093;52.788;6.940;2022-09-17T10:44:55;12.10;99.90
53208;DHT22;39093;52.788;6.940;2022-09-17T10:50:22;12.50;99.90
53208;DHT22;39093;52.788;6.940;2022-09-17T10:52:55;12.70;99.90
53208;DHT22;39093;52.788;6.940;2022-09-17T10:55:32;12.90;99.90
53208;DHT22;39093;52.788;6.940;2022-09-17T10:58:15;13.00;99.90
53208;DHT22;39093;52.788;6.940;2022-09-17T11:01:01;13.20;99.90
53208;DHT22;39093;52.788;6.940;2022-09-17T11:04:11;13.30;99.90
53208;DHT22;39093;52.788;6.940;2022-09-17T11:06:49;13.40;99.90
53208;DHT22;39093;52.788;6.940;2022-09-17T11:09:34;13.60;99.90
53208;DHT22;39093;52.788;6.940;2022-09-17T11:12:34;13.70;99.90
53208;DHT22;39093;52.788;6.940;2022-09-17T11:15:29;13.90;99.90
53208;DHT22;39093;52.788;6.940;2022-09-17T11:24:05;13.50;99.90
53208;DHT22;39093;52.788;6.940;2022-09-17T11:26:40;13.20;99.90
53208;DHT22;39093;52.788;6.940;2022-09-17T11:34:46;12.70;99.90
53208;DHT22;39093;52.788;6.940;2022-09-17T11:37:27;12.70;99.90
53208;DHT22;39093;52.788;6.940;2022-09-17T11:42:53;12.60;99.90
53208;DHT22;39093;52.788;6.940;2022-09-17T11:45:35;12.50;99.90
53208;DHT22;39093;52.788;6.940;2022-09-17T11:48:12;12.30;99.90
53208;DHT22;39093;52.788;6.940;2022-09-17T11:50:54;12.20;99.90
53208;DHT22;39093;52.788;6.940;2022-09-17T11:53:33;12.00;99.90
53208;DHT22;39093;52.788;6.940;2022-09-17T11:56:48;12.20;99.90
53208;DHT22;39093;52.788;6.940;2022-09-17T12:07:09;13.30;99.90
53208;DHT22;39093;52.788;6.940;2022-09-17T12:09:41;13.20;99.90
53208;DHT22;39093;52.788;6.940;2022-09-17T12:12:16;13.10;99.90
53208;DHT22;39093;52.788;6.940;2022-09-17T12:15:16;13.10;99.90
53208;DHT22;39093;52.788;6.940;2022-09-17T12:17:49;13.10;99.90
53208;DHT22;39093;52.788;6.940;2022-09-17T12:20:36;13.20;99.90
53208;DHT22;39093;52.788;6.940;2022-09-17T12:23:10;13.60;99.90
53208;DHT22;39093;52.788;6.940;2022-09-17T12:25:55;14.20;99.90
53208;DHT22;39093;52.788;6.940;2022-09-17T12:28:38;15.10;99.90
53208;DHT22;39093;52.788;6.940;2022-09-17T12:31:16;16.00;99.90
53208;DHT22;39093;52.788;6.940;2022-09-17T12:33:54;16.70;99.90
53208;DHT22;39093;52.788;6.940;2022-09-17T12:36:41;17.20;99.90
53208;DHT22;39093;52.788;6.940;2022-09-17T13:01:54;20.20;99.90
53208;DHT22;39093;52.788;6.940;2022-09-17T13:04:54;20.70;99.90
53208;DHT22;39093;52.788;6.940;2022-09-17T13:13:47;21.70;99.90
53208;DHT22;39093;52.788;6.940;2022-09-17T13:21:54;21.50;99.70
53208;DHT22;39093;52.788;6.940;2022-09-17T13:24:28;21.20;99.90
53208;DHT22;39093;52.788;6.940;2022-09-17T13:26:58;21.50;99.90
53208;DHT22;39093;52.788;6.940;2022-09-17T13:37:59;20.20;98.90
53208;DHT22;39093;52.788;6.940;2022-09-17T13:40:28;19.50;98.40
53208;DHT22;39093;52.788;6.940;2022-09-17T13:45:30;19.60;99.90
53208;DHT22;39093;52.788;6.940;2022-09-17T13:48:09;19.10;98.90
53208;DHT22;39093;52.788;6.940;2022-09-17T13:50:42;17.90;97.80
53208;DHT22;39093;52.788;6.940;2022-09-17T13:55:42;18.20;99.70
53208;DHT22;39093;52.788;6.940;2022-09-17T14:01:09;19.10;96.00
53208;DHT22;39093;52.788;6.940;2022-09-17T14:14:14;20.00;93.30
53208;DHT22;39093;52.788;6.940;2022-09-17T14:16:45;20.50;92.70
53208;DHT22;39093;52.788;6.940;2022-09-17T14:21:54;21.10;92.30
53208;DHT22;39093;52.788;6.940;2022-09-17T14:24:37;21.20;90.70
53208;DHT22;39093;52.788;6.940;2022-09-17T14:30:21;20.40;87.40
53208;DHT22;39093;52.788;6.940;2022-09-17T14:33:05;19.50;90.20
53208;DHT22;39093;52.788;6.940;2022-09-17T14:38:19;18.10;92.00
53208;DHT22;39093;52.788;6.940;2022-09-17T14:40:48;17.50;92.20
53208;DHT22;39093;52.788;6.940;2022-09-17T14:43:26;16.90;90.50
53208;DHT22;39093;52.788;6.940;2022-09-17T14:45:57;16.60;92.20
53208;DHT22;39093;52.788;6.940;2022-09-17T14:48:32;16.20;93.00
53208;DHT22;39093;52.788;6.940;2022-09-17T14:54:34;16.10;93.40
53208;DHT22;39093;52.788;6.940;2022-09-17T14:56:50;16.00;93.40
53208;DHT22;39093;52.788;6.940;2022-09-17T15:01:48;15.50;93.10
53208;DHT22;39093;52.788;6.940;2022-09-17T15:06:43;15.10;93.80
53208;DHT22;39093;52.788;6.940;2022-09-17T15:09:28;15.00;95.60
53208;DHT22;39093;52.788;6.940;2022-09-17T15:11:57;14.90;97.40
53208;DHT22;39093;52.788;6.940;2022-09-17T15:14:30;14.70;99.00
53208;DHT22;39093;52.788;6.940;2022-09-17T15:17:00;14.60;99.90
53208;DHT22;39093;52.788;6.940;2022-09-17T15:19:34;14.40;99.90
53208;DHT22;39093;52.788;6.940;2022-09-17T15:22:08;14.30;99.90
53208;DHT22;39093;52.788;6.940;2022-09-17T15:27:34;14.30;99.90
53208;DHT22;39093;52.788;6.940;2022-09-17T15:30:17;14.30;99.90
53208;DHT22;39093;52.788;6.940;2022-09-17T15:32:50;14.20;99.90
53208;DHT22;39093;52.788;6.940;2022-09-17T15:35:28;14.10;99.90
53208;DHT22;39093;52.788;6.940;2022-09-17T15:38:18;14.10;99.90
53208;DHT22;39093;52.788;6.940;2022-09-17T15:40:49;14.00;99.90
53208;DHT22;39093;52.788;6.940;2022-09-17T15:43:32;14.00;99.90
53208;DHT22;39093;52.788;6.940;2022-09-17T15:46:30;14.00;99.90
53208;DHT22;39093;52.788;6.940;2022-09-17T15:48:59;13.90;99.90
53208;DHT22;39093;52.788;6.940;2022-09-17T15:51:29;13.80;99.90
53208;DHT22;39093;52.788;6.940;2022-09-17T15:53:59;13.80;99.90
53208;DHT22;39093;52.788;6.940;2022-09-17T15:56:39;13.80;99.90
53208;DHT22;39093;52.788;6.940;2022-09-17T15:59:20;13.90;99.90
53208;DHT22;39093;52.788;6.940;2022-09-17T16:01:53;13.90;99.90
53208;DHT22;39093;52.788;6.940;2022-09-17T16:04:32;13.80;99.90
53208;DHT22;39093;52.788;6.940;2022-09-17T16:07:26;13.70;99.90
53208;DHT22;39093;52.788;6.940;2022-09-17T16:09:53;13.70;99.90
53208;DHT22;39093;52.788;6.940;2022-09-17T16:12:23;13.70;99.90
53208;DHT22;39093;52.788;6.940;2022-09-17T16:14:54;13.70;99.90
53208;DHT22;39093;52.788;6.940;2022-09-17T16:17:23;13.70;99.90
53208;DHT22;39093;52.788;6.940;2022-09-17T16:19:51;13.80;99.90
53208;DHT22;39093;52.788;6.940;2022-09-17T16:22:18;13.80;99.90
53208;DHT22;39093;52.788;6.940;2022-09-17T16:24:45;13.90;99.90
53208;DHT22;39093;52.788;6.940;2022-09-17T16:27:20;13.80;99.90
53208;DHT22;39093;52.788;6.940;2022-09-17T16:29:48;13.60;99.90
53208;DHT22;39093;52.788;6.940;2022-09-17T16:32:16;13.50;99.90
53208;DHT22;39093;52.788;6.940;2022-09-17T16:34:42;13.50;99.90
53208;DHT22;39093;52.788;6.940;2022-09-17T16:37:09;13.40;99.90
53208;DHT22;39093;52.788;6.940;2022-09-17T16:39:37;13.30;99.90
53208;DHT22;39093;52.788;6.940;2022-09-17T16:42:03;13.30;99.90
53208;DHT22;39093;52.788;6.940;2022-09-17T16:44:30;13.20;99.90
53208;DHT22;39093;52.788;6.940;2022-09-17T16:46:57;13.20;99.90
53208;DHT22;39093;52.788;6.940;2022-09-17T16:49:24;13.10;99.90
53208;DHT22;39093;52.788;6.940;2022-09-17T16:51:51;13.00;99.90
53208;DHT22;39093;52.788;6.940;2022-09-17T16:54:18;13.00;99.90
53208;DHT22;39093;52.788;6.940;2022-09-17T16:56:45;12.90;99.90
53208;DHT22;39093;52.788;6.940;2022-09-17T16:59:12;12.90;99.90
53208;DHT22;39093;52.788;6.940;2022-09-17T17:01:39;12.80;99.90
53208;DHT22;39093;52.788;6.940;2022-09-17T17:04:06;12.70;99.90
53208;DHT22;39093;52.788;6.940;2022-09-17T17:06:33;12.60;99.90
53208;DHT22;39093;52.788;6.940;2022-09-17T17:09:00;12.60;99.90
53208;DHT22;39093;52.788;6.940;2022-09-17T17:11:27;12.60;99.90
53208;DHT22;39093;52.788;6.940;2022-09-17T17:13:54;12.50;99.90
53208;DHT22;39093;52.788;6.940;2022-09-17T17:16:24;12.50;99.90
53208;DHT22;39093;52.788;6.940;2022-09-17T17:18:51;12.50;99.90
53208;DHT22;39093;52.788;6.940;2022-09-17T17:21:19;12.50;99.90
53208;DHT22;39093;52.788;6.940;2022-09-17T17:23:47;12.50;99.90
53208;DHT22;39093;52.788;6.940;2022-09-17T17:26:15;12.40;99.90
53208;DHT22;39093;52.788;6.940;2022-09-17T17:28:42;12.40;99.90
53208;DHT22;39093;52.788;6.940;2022-09-17T17:31:09;12.40;99.90
53208;DHT22;39093;52.788;6.940;2022-09-17T17:33:37;12.30;99.90
53208;DHT22;39093;52.788;6.940;2022-09-17T17:36:04;12.30;99.90
53208;DHT22;39093;52.788;6.940;2022-09-17T17:38:34;12.30;99.90
53208;DHT22;39093;52.788;6.940;2022-09-17T17:43:29;12.30;99.90
53208;DHT22;39093;52.788;6.940;2022-09-17T17:45:56;12.30;99.90
53208;DHT22;39093;52.788;6.940;2022-09-17T17:48:24;12.20;99.90
53208;DHT22;39093;52.788;6.940;2022-09-17T17:50:51;12.30;99.90
53208;DHT22;39093;52.788;6.940;2022-09-17T17:53:22;12.20;99.90
53208;DHT22;39093;52.788;6.940;2022-09-17T17:55:55;12.20;99.90
53208;DHT22;39093;52.788;6.940;2022-09-17T17:58:23;12.20;99.90
53208;DHT22;39093;52.788;6.940;2022-09-17T18:00:50;12.20;99.90
53208;DHT22;39093;52.788;6.940;2022-09-17T18:03:17;12.10;99.90
53208;DHT22;39093;52.788;6.940;2022-09-17T18:05:44;12.10;99.90
53208;DHT22;39093;52.788;6.940;2022-09-17T18:08:11;12.00;99.90
53208;DHT22;39093;52.788;6.940;2022-09-17T18:10:38;12.00;99.90
53208;DHT22;39093;52.788;6.940;2022-09-17T18:13:04;12.00;99.90
53208;DHT22;39093;52.788;6.940;2022-09-17T18:15:31;12.00;99.90
53208;DHT22;39093;52.788;6.940;2022-09-17T18:17:58;12.00;99.90
53208;DHT22;39093;52.788;6.940;2022-09-17T18:20:25;12.00;99.90
53208;DHT22;39093;52.788;6.940;2022-09-17T18:22:52;12.00;99.90
53208;DHT22;39093;52.788;6.940;2022-09-17T18:25:19;11.90;99.90
53208;DHT22;39093;52.788;6.940;2022-09-17T18:27:46;11.90;99.90
53208;DHT22;39093;52.788;6.940;2022-09-17T18:30:13;12.10;99.90
53208;DHT22;39093;52.788;6.940;2022-09-17T18:32:40;11.80;99.90
53208;DHT22;39093;52.788;6.940;2022-09-17T18:35:07;11.80;99.90
53208;DHT22;39093;52.788;6.940;2022-09-17T18:37:34;11.80;99.90
53208;DHT22;39093;52.788;6.940;2022-09-17T18:40:01;11.80;99.90
53208;DHT22;39093;52.788;6.940;2022-09-17T18:42:28;11.70;99.90
53208;DHT22;39093;52.788;6.940;2022-09-17T18:44:55;11.70;99.90
53208;DHT22;39093;52.788;6.940;2022-09-17T18:47:22;11.60;99.90
53208;DHT22;39093;52.788;6.940;2022-09-17T18:49:48;11.60;99.90
53208;DHT22;39093;52.788;6.940;2022-09-17T18:52:15;11.60;99.90
53208;DHT22;39093;52.788;6.940;2022-09-17T18:54:42;11.60;99.90
53208;DHT22;39093;52.788;6.940;2022-09-17T18:57:12;11.50;99.90
53208;DHT22;39093;52.788;6.940;2022-09-17T18:59:39;11.50;99.90
53208;DHT22;39093;52.788;6.940;2022-09-17T19:02:10;11.50;99.90
53208;DHT22;39093;52.788;6.940;2022-09-17T19:04:37;11.50;99.90
53208;DHT22;39093;52.788;6.940;2022-09-17T19:07:05;11.40;99.90
53208;DHT22;39093;52.788;6.940;2022-09-17T19:09:32;11.40;99.90
53208;DHT22;39093;52.788;6.940;2022-09-17T19:11:59;11.40;99.90
53208;DHT22;39093;52.788;6.940;2022-09-17T19:14:26;11.40;99.90
53208;DHT22;39093;52.788;6.940;2022-09-17T19:16:52;11.30;99.90
53208;DHT22;39093;52.788;6.940;2022-09-17T19:19:20;11.40;99.90